메인 페이지
METAR-TAF:

METAR-TAF

공항 :

시안 셴양 국제공항

시안, 중국

위도: 34-26N, 경도: 108-45E, 고도: 479m

현재 날씨관측

예보는 1 시간 7분 전, 15:00시(UTC)에 발표되었습니다.
4kt서남서풍과 풍을 오가는
온도 20°C
습도 78%
기압 1010 hPa
시정 10km 이상
1500m 미만 상공 구름 및 적란운 없음

METAR: ZLXY 311500Z 28002MPS 250V350 CAVOK 20/16 Q1010 NOSIG

시각: 00:07 (16:07 UTC)

예보

예보는 6 시간 57분 전, 09:10시(UTC)에 발표되었습니다.
예보 대상 시간: 31일 12시부터 01일 12시까지 (UTC)
8kt
시정: 3000m
연무

TAF: ZLXY 310910Z 3112/0112 08004MPS 3000 HZ NSC TX35/0108Z TN18/3122Z

4,000개 이상의 공항 관측 자료 및 예보 (METAR 및 TAF 보고).

지도상에서 검색 가능한 기상관측소가 노란 점과 빨간 점으로 표시되어 있습니다.

기상관측소 명을 보려면 표시 위로 마우스를 이동하세요.

날씨 관측과 예보를 보려면 클릭하세요.

지도 변경 : 확대하려면 엑스 표시가 있는 녹색 버튼, 축소하려면 빼기 표시가 있는 녹색 버튼, 다음 페이지의 지도를 보려면 녹색 화살표를 클릭하세요.


METAR-TAF: